Time;durP1;ratioP1;P1;durP2;ratioP2;P2;SDS_P1;SDS_P2;PMS_P1;PMS_P2;Temp;Humidity;BMP_temperature;BMP_pressure;BME280_temperature;BME280_humidity;BME280_pressure;Samples;Min_cycle;Max_cycle;Signal;HPM_P1;HPM_P2
2023/06/30 00:01:48;;;;;;;8.05;4.97;;;;;;;;;;5013382;28;20025;-64
2023/06/30 00:04:22;;;;;;;6.07;5.38;;;;;;;;;;5013259;28;20033;-64
2023/06/30 00:06:49;;;;;;;9.82;5.43;;;;;;;;;;5013218;28;20022;-64
2023/06/30 00:09:24;;;;;;;9.02;4.78;;;;;;;;;;5013096;28;20032;-65
2023/06/30 00:11:51;;;;;;;7.40;5.00;;;;;;;;;;5013194;28;20025;-66
2023/06/30 00:14:17;;;;;;;6.22;5.03;;;;;;;;;;5013083;28;20422;-63
2023/06/30 00:16:42;;;;;;;6.68;5.40;;;;;;;;;;5013008;28;20076;-63
2023/06/30 00:19:08;;;;;;;6.55;5.00;;;;;;;;;;5012857;28;20029;-66
2023/06/30 00:21:34;;;;;;;7.18;5.43;;;;;;;;;;5012946;28;20033;-63
2023/06/30 00:24:04;;;;;;;5.55;4.55;;;;;;;;;;5012676;28;20084;-66
2023/06/30 00:26:29;;;;;;;7.07;4.90;;;;;;;;;;5012766;28;20034;-64
2023/06/30 00:28:55;;;;;;;6.03;5.03;;;;;;;;;;5013060;28;20033;-63
2023/06/30 00:31:20;;;;;;;7.50;5.50;;;;;;;;;;5012999;28;20033;-63
2023/06/30 00:33:46;;;;;;;5.55;4.68;;;;;;;;;;5012565;28;20022;-65
2023/06/30 00:36:11;;;;;;;7.90;4.85;;;;;;;;;;5012604;28;20026;-65
2023/06/30 00:38:37;;;;;;;6.43;4.90;;;;;;;;;;5012495;28;20096;-63
2023/06/30 00:41:02;;;;;;;6.57;5.00;;;;;;;;;;5012173;28;20057;-64
2023/06/30 00:43:28;;;;;;;7.70;4.90;;;;;;;;;;5012578;28;20096;-63
2023/06/30 00:45:54;;;;;;;8.68;4.72;;;;;;;;;;5012774;28;20033;-64
2023/06/30 00:48:20;;;;;;;13.15;5.47;;;;;;;;;;5012506;28;20042;-66
2023/06/30 00:50:45;;;;;;;7.13;4.70;;;;;;;;;;5012617;28;20030;-63
2023/06/30 00:53:12;;;;;;;6.40;5.18;;;;;;;;;;5012415;28;20406;-63
2023/06/30 00:55:40;;;;;;;11.38;5.10;;;;;;;;;;5012715;28;20080;-63
2023/06/30 00:58:05;;;;;;;8.20;4.90;;;;;;;;;;5012524;28;20034;-63
2023/06/30 01:00:31;;;;;;;6.55;5.25;;;;;;;;;;5012556;28;20034;-63
2023/06/30 01:03:19;;;;;;;7.72;5.30;;;;;;;;;;5012645;28;20097;-63
2023/06/30 01:05:53;;;;;;;7.35;4.82;;;;;;;;;;5012682;28;20058;-63
2023/06/30 01:08:38;;;;;;;7.60;5.47;;;;;;;;;;5012322;28;20030;-63
2023/06/30 01:11:05;;;;;;;6.90;5.00;;;;;;;;;;5012601;28;20112;-66
2023/06/30 01:13:31;;;;;;;7.97;5.10;;;;;;;;;;5012478;28;20030;-63
2023/06/30 01:15:58;;;;;;;6.90;5.50;;;;;;;;;;5012532;28;20452;-63
2023/06/30 01:18:25;;;;;;;9.48;5.00;;;;;;;;;;5012430;28;20061;-64
2023/06/30 01:20:52;;;;;;;7.15;5.35;;;;;;;;;;5011872;28;20482;-65
2023/06/30 01:23:27;;;;;;;7.20;4.93;;;;;;;;;;5012430;28;20026;-64
2023/06/30 01:25:52;;;;;;;9.13;5.20;;;;;;;;;;5012327;28;20104;-63
2023/06/30 01:28:18;;;;;;;6.15;5.05;;;;;;;;;;5012208;28;20081;-64
2023/06/30 01:30:44;;;;;;;6.30;4.97;;;;;;;;;;5012345;28;20473;-65
2023/06/30 01:33:10;;;;;;;6.28;4.95;;;;;;;;;;5012225;28;20407;-63
2023/06/30 01:35:36;;;;;;;8.43;5.13;;;;;;;;;;5012138;28;20112;-63
2023/06/30 01:38:02;;;;;;;8.57;4.65;;;;;;;;;;5012133;28;20121;-66
2023/06/30 01:40:28;;;;;;;10.27;4.97;;;;;;;;;;5012060;28;20431;-63
2023/06/30 01:42:56;;;;;;;7.25;5.05;;;;;;;;;;5012119;28;20048;-64
2023/06/30 01:45:25;;;;;;;8.50;5.55;;;;;;;;;;5012340;28;20026;-63
2023/06/30 01:47:51;;;;;;;7.50;4.90;;;;;;;;;;5012219;28;20022;-63
2023/06/30 01:50:18;;;;;;;5.95;4.63;;;;;;;;;;5011957;28;20359;-63
2023/06/30 01:52:43;;;;;;;6.70;4.75;;;;;;;;;;5013688;28;20034;-64
2023/06/30 01:55:09;;;;;;;9.50;4.57;;;;;;;;;;5015775;28;20030;-63
2023/06/30 01:57:34;;;;;;;6.13;5.00;;;;;;;;;;5015662;28;20418;-63
2023/06/30 02:00:00;;;;;;;8.38;5.25;;;;;;;;;;5015761;28;20402;-66
2023/06/30 02:02:25;;;;;;;7.00;4.85;;;;;;;;;;5015664;28;20025;-63
2023/06/30 02:04:51;;;;;;;6.47;4.65;;;;;;;;;;5015385;28;20026;-63
2023/06/30 02:07:16;;;;;;;7.43;5.03;;;;;;;;;;5015644;28;20029;-65
2023/06/30 02:09:42;;;;;;;7.63;4.45;;;;;;;;;;5015626;28;20495;-64
2023/06/30 02:12:09;;;;;;;7.40;4.47;;;;;;;;;;5015435;28;20041;-63
2023/06/30 02:14:34;;;;;;;6.03;4.43;;;;;;;;;;5015414;28;20041;-65
2023/06/30 02:16:59;;;;;;;6.28;4.70;;;;;;;;;;5015374;28;20034;-65
2023/06/30 02:19:25;;;;;;;6.75;4.80;;;;;;;;;;5014966;28;20048;-66
2023/06/30 02:21:51;;;;;;;6.43;4.95;;;;;;;;;;5015262;28;20391;-64
2023/06/30 02:24:16;;;;;;;11.75;4.75;;;;;;;;;;5015154;28;20041;-63
2023/06/30 02:26:41;;;;;;;9.63;4.68;;;;;;;;;;5015077;28;20056;-63
2023/06/30 02:29:07;;;;;;;8.70;4.63;;;;;;;;;;5015146;28;20352;-63
2023/06/30 02:31:32;;;;;;;9.10;4.85;;;;;;;;;;5015182;28;20478;-64
2023/06/30 02:33:58;;;;;;;5.93;4.72;;;;;;;;;;5014644;28;20057;-64
2023/06/30 02:36:23;;;;;;;8.90;5.10;;;;;;;;;;5014934;28;20030;-63
2023/06/30 02:38:49;;;;;;;6.00;4.85;;;;;;;;;;5014933;28;20183;-64
2023/06/30 02:41:14;;;;;;;5.80;4.53;;;;;;;;;;5014530;28;20056;-64
2023/06/30 02:43:39;;;;;;;5.32;4.30;;;;;;;;;;5014757;28;20034;-63
2023/06/30 02:46:05;;;;;;;5.93;4.60;;;;;;;;;;5014458;28;20029;-64
2023/06/30 02:48:30;;;;;;;8.35;5.13;;;;;;;;;;5014445;28;20034;-66
2023/06/30 02:50:56;;;;;;;7.15;5.05;;;;;;;;;;5014664;28;20046;-64
2023/06/30 02:53:21;;;;;;;9.55;5.53;;;;;;;;;;5014668;28;20054;-64
2023/06/30 02:55:46;;;;;;;6.50;4.82;;;;;;;;;;5014619;28;20112;-67
2023/06/30 02:58:12;;;;;;;7.32;4.65;;;;;;;;;;5014394;28;20428;-64
2023/06/30 03:00:39;;;;;;;7.43;5.07;;;;;;;;;;5014522;28;20417;-63
2023/06/30 03:03:05;;;;;;;7.20;4.70;;;;;;;;;;5014013;28;20084;-63
2023/06/30 03:05:33;;;;;;;8.43;5.45;;;;;;;;;;5014389;28;20065;-64
2023/06/30 03:07:59;;;;;;;6.72;4.68;;;;;;;;;;5014502;28;20120;-65
2023/06/30 03:10:24;;;;;;;8.85;5.30;;;;;;;;;;5014347;28;20101;-63
2023/06/30 03:12:50;;;;;;;10.63;5.22;;;;;;;;;;5014195;28;20378;-63
2023/06/30 03:15:15;;;;;;;14.43;5.70;;;;;;;;;;5014299;28;20026;-66
2023/06/30 03:17:41;;;;;;;14.45;5.82;;;;;;;;;;5013895;28;20239;-64
2023/06/30 03:20:10;;;;;;;21.42;7.38;;;;;;;;;;5013830;28;20034;-65
2023/06/30 03:22:36;;;;;;;11.30;6.00;;;;;;;;;;5014066;28;20021;-66
2023/06/30 03:25:01;;;;;;;119.78;19.73;;;;;;;;;;5014167;28;20056;-64
2023/06/30 03:27:27;;;;;;;119.32;22.08;;;;;;;;;;5013961;28;20041;-64
2023/06/30 03:29:52;;;;;;;21.60;9.35;;;;;;;;;;5014009;28;20132;-65
2023/06/30 03:32:18;;;;;;;29.42;11.77;;;;;;;;;;5013594;28;20491;-65
2023/06/30 03:34:43;;;;;;;26.27;11.40;;;;;;;;;;5013870;28;20029;-64
2023/06/30 03:37:09;;;;;;;19.95;10.88;;;;;;;;;;5013721;28;20046;-64
2023/06/30 03:39:34;;;;;;;23.98;10.63;;;;;;;;;;5013441;28;20037;-65
2023/06/30 03:42:00;;;;;;;17.88;10.68;;;;;;;;;;5013543;28;20081;-64
2023/06/30 03:44:26;;;;;;;13.35;8.93;;;;;;;;;;5013743;28;20029;-67
2023/06/30 03:46:53;;;;;;;18.35;10.45;;;;;;;;;;5013460;28;20022;-64
2023/06/30 03:49:19;;;;;;;14.70;10.52;;;;;;;;;;5013907;28;20088;-64
2023/06/30 03:51:44;;;;;;;15.27;10.68;;;;;;;;;;5013593;28;20490;-64
2023/06/30 03:54:10;;;;;;;15.65;10.52;;;;;;;;;;5013163;28;20029;-64
2023/06/30 03:56:35;;;;;;;19.52;10.40;;;;;;;;;;5013431;28;20034;-65
2023/06/30 03:59:01;;;;;;;15.07;10.25;;;;;;;;;;5013572;28;20026;-64
2023/06/30 04:01:26;;;;;;;15.27;9.88;;;;;;;;;;4995733;28;20347;-64
2023/06/30 04:03:52;;;;;;;14.45;10.20;;;;;;;;;;5013386;28;20029;-64
2023/06/30 04:06:18;;;;;;;15.23;9.88;;;;;;;;;;5013314;28;20036;-65
2023/06/30 04:08:44;;;;;;;16.45;11.43;;;;;;;;;;5013531;28;20030;-64
2023/06/30 04:11:09;;;;;;;14.50;10.90;;;;;;;;;;5013243;28;20466;-64
2023/06/30 04:13:35;;;;;;;16.70;10.93;;;;;;;;;;5013138;28;20144;-63
2023/06/30 04:16:00;;;;;;;19.33;10.80;;;;;;;;;;5012377;28;20356;-64
2023/06/30 04:18:27;;;;;;;16.15;11.07;;;;;;;;;;5013081;28;20037;-64
2023/06/30 04:20:52;;;;;;;15.45;11.23;;;;;;;;;;5012863;28;20439;-66
2023/06/30 04:23:18;;;;;;;17.42;11.63;;;;;;;;;;5013272;28;20026;-64
2023/06/30 04:25:43;;;;;;;15.80;12.00;;;;;;;;;;5012776;28;20026;-63
2023/06/30 04:28:09;;;;;;;17.00;11.60;;;;;;;;;;5012870;28;20041;-64
2023/06/30 04:30:34;;;;;;;17.55;12.40;;;;;;;;;;5012692;28;20038;-63
2023/06/30 04:33:00;;;;;;;17.67;11.18;;;;;;;;;;5012778;28;20395;-63
2023/06/30 04:35:25;;;;;;;17.30;12.15;;;;;;;;;;5012940;28;20512;-64
2023/06/30 04:37:54;;;;;;;18.40;12.57;;;;;;;;;;5012798;28;20026;-66
2023/06/30 04:40:19;;;;;;;19.40;12.73;;;;;;;;;;5007394;28;20061;-64
2023/06/30 04:42:45;;;;;;;17.20;11.73;;;;;;;;;;4993023;28;20054;-64
2023/06/30 04:45:10;;;;;;;20.15;12.48;;;;;;;;;;4992995;28;20042;-64
2023/06/30 04:47:36;;;;;;;19.10;12.27;;;;;;;;;;4993146;28;20077;-64
2023/06/30 04:50:01;;;;;;;20.17;12.95;;;;;;;;;;4993207;28;20034;-64
2023/06/30 04:52:27;;;;;;;19.73;12.55;;;;;;;;;;4993134;28;20112;-63
2023/06/30 04:54:56;;;;;;;17.95;12.60;;;;;;;;;;4992934;28;20037;-64
2023/06/30 04:57:21;;;;;;;20.02;13.23;;;;;;;;;;4992639;28;20027;-64
2023/06/30 04:59:47;;;;;;;19.33;12.80;;;;;;;;;;4992909;28;20118;-64
2023/06/30 05:02:12;;;;;;;21.90;13.52;;;;;;;;;;4992822;28;20133;-64
2023/06/30 05:04:38;;;;;;;22.13;15.20;;;;;;;;;;4993009;28;20464;-64
2023/06/30 05:07:03;;;;;;;16.63;12.35;;;;;;;;;;5004009;28;20088;-64
2023/06/30 05:09:29;;;;;;;21.08;13.68;;;;;;;;;;5012682;28;20080;-64
2023/06/30 05:11:54;;;;;;;17.88;12.93;;;;;;;;;;4994776;28;20030;-64
2023/06/30 05:14:20;;;;;;;19.40;12.45;;;;;;;;;;5012277;28;20018;-64
2023/06/30 05:16:45;;;;;;;18.05;13.52;;;;;;;;;;4994715;28;20030;-64
2023/06/30 05:19:10;;;;;;;21.77;12.80;;;;;;;;;;5012056;28;20026;-64
2023/06/30 05:21:36;;;;;;;17.15;12.23;;;;;;;;;;5012416;28;20076;-64
2023/06/30 05:24:01;;;;;;;20.55;13.57;;;;;;;;;;5012530;28;20030;-67
2023/06/30 05:26:27;;;;;;;21.55;15.40;;;;;;;;;;5013761;28;20026;-64
2023/06/30 05:28:52;;;;;;;18.23;12.40;;;;;;;;;;5016151;28;20347;-64
2023/06/30 05:31:17;;;;;;;17.65;12.32;;;;;;;;;;5016392;28;20467;-64
2023/06/30 05:33:43;;;;;;;18.92;12.32;;;;;;;;;;5015926;28;20030;-64
2023/06/30 05:36:08;;;;;;;20.25;12.90;;;;;;;;;;5016184;28;20068;-67
2023/06/30 05:38:34;;;;;;;18.15;12.88;;;;;;;;;;5016048;28;20041;-65
2023/06/30 05:40:59;;;;;;;18.95;12.82;;;;;;;;;;5015902;28;20103;-64
2023/06/30 05:43:25;;;;;;;18.63;13.13;;;;;;;;;;5015798;28;20422;-64
2023/06/30 05:45:50;;;;;;;19.42;13.38;;;;;;;;;;5016075;28;20024;-64
2023/06/30 05:48:16;;;;;;;19.33;12.73;;;;;;;;;;5016001;28;20386;-64
2023/06/30 05:50:41;;;;;;;20.85;12.93;;;;;;;;;;5016020;28;20022;-64
2023/06/30 05:53:07;;;;;;;19.95;13.85;;;;;;;;;;5015908;28;20081;-64
2023/06/30 05:55:33;;;;;;;18.27;12.63;;;;;;;;;;5015943;28;20026;-64
2023/06/30 05:57:58;;;;;;;19.05;13.43;;;;;;;;;;5015524;28;20022;-65
2023/06/30 06:00:24;;;;;;;19.40;13.38;;;;;;;;;;5015574;28;20467;-64
2023/06/30 06:02:50;;;;;;;18.17;11.93;;;;;;;;;;5015686;28;20048;-64
2023/06/30 06:05:16;;;;;;;18.27;12.07;;;;;;;;;;5015740;28;20033;-64
2023/06/30 06:07:41;;;;;;;17.02;11.55;;;;;;;;;;5015687;28;20037;-64
2023/06/30 06:10:07;;;;;;;25.48;14.25;;;;;;;;;;5015554;28;20071;-64
2023/06/30 06:12:32;;;;;;;16.98;12.02;;;;;;;;;;5009561;28;20085;-63
2023/06/30 06:14:58;;;;;;;19.15;12.18;;;;;;;;;;4995861;28;20033;-64
2023/06/30 06:17:23;;;;;;;17.08;11.73;;;;;;;;;;4995911;28;20034;-64
2023/06/30 06:19:49;;;;;;;17.08;11.40;;;;;;;;;;5005250;28;20038;-64
2023/06/30 06:22:14;;;;;;;18.85;11.95;;;;;;;;;;5015207;28;20077;-64
2023/06/30 06:24:39;;;;;;;18.05;12.02;;;;;;;;;;5014916;28;20103;-63
2023/06/30 06:27:05;;;;;;;17.90;12.48;;;;;;;;;;5014903;28;20022;-64
2023/06/30 06:29:30;;;;;;;19.98;11.57;;;;;;;;;;5015091;28;20382;-64
2023/06/30 06:31:56;;;;;;;17.20;11.68;;;;;;;;;;5014557;28;20033;-65
2023/06/30 06:34:22;;;;;;;20.92;12.15;;;;;;;;;;5014961;28;20133;-64
2023/06/30 06:36:47;;;;;;;18.45;11.43;;;;;;;;;;5014937;28;20361;-64
2023/06/30 06:39:14;;;;;;;18.05;11.48;;;;;;;;;;5014504;28;20427;-63
2023/06/30 06:41:39;;;;;;;17.08;11.23;;;;;;;;;;4994984;28;20053;-64
2023/06/30 06:44:05;;;;;;;19.17;10.95;;;;;;;;;;4995223;28;20026;-64
2023/06/30 06:46:30;;;;;;;16.63;10.38;;;;;;;;;;5011025;28;20466;-64
2023/06/30 06:48:56;;;;;;;16.50;11.25;;;;;;;;;;5014822;28;20104;-65
2023/06/30 06:51:21;;;;;;;19.55;11.27;;;;;;;;;;5014943;28;20022;-64
2023/06/30 06:53:47;;;;;;;18.95;11.20;;;;;;;;;;5014789;28;20470;-64
2023/06/30 06:56:12;;;;;;;17.40;11.73;;;;;;;;;;5014377;28;20022;-65
2023/06/30 06:58:38;;;;;;;14.43;11.13;;;;;;;;;;5014803;28;20028;-64
2023/06/30 07:01:04;;;;;;;16.50;12.18;;;;;;;;;;5014621;28;20391;-66
2023/06/30 07:03:30;;;;;;;19.10;12.95;;;;;;;;;;5014692;28;20038;-64
2023/06/30 07:05:56;;;;;;;18.70;11.77;;;;;;;;;;5014638;28;20025;-63
2023/06/30 07:08:22;;;;;;;17.33;11.68;;;;;;;;;;5014398;28;20056;-64
2023/06/30 07:10:48;;;;;;;15.80;11.45;;;;;;;;;;5014249;28;20475;-64
2023/06/30 07:13:18;;;;;;;17.58;12.90;;;;;;;;;;5014102;28;20029;-65
2023/06/30 07:15:53;;;;;;;18.50;12.30;;;;;;;;;;5014409;28;20092;-63
2023/06/30 07:18:20;;;;;;;19.42;12.13;;;;;;;;;;5014103;28;20032;-64
2023/06/30 07:20:50;;;;;;;21.48;12.85;;;;;;;;;;5013831;28;20526;-63
2023/06/30 07:23:16;;;;;;;20.42;13.35;;;;;;;;;;5014064;28;20026;-64
2023/06/30 07:25:43;;;;;;;20.65;13.02;;;;;;;;;;5014089;28;20113;-64
2023/06/30 07:28:09;;;;;;;19.48;13.63;;;;;;;;;;5013930;28;20056;-64
2023/06/30 07:30:36;;;;;;;18.60;12.52;;;;;;;;;;5014021;28;20490;-64
2023/06/30 07:33:01;;;;;;;19.30;12.95;;;;;;;;;;5013863;28;20100;-65
2023/06/30 07:35:27;;;;;;;19.23;12.55;;;;;;;;;;5014030;28;20463;-64
2023/06/30 07:37:52;;;;;;;16.17;11.82;;;;;;;;;;5013602;28;20034;-64
2023/06/30 07:40:19;;;;;;;20.42;13.32;;;;;;;;;;5013595;28;20030;-62
2023/06/30 07:42:45;;;;;;;18.15;12.65;;;;;;;;;;5013527;28;20048;-63
2023/06/30 07:45:13;;;;;;;21.02;13.35;;;;;;;;;;5013799;28;20041;-65
2023/06/30 07:47:42;;;;;;;18.50;12.90;;;;;;;;;;5013768;28;20091;-62
2023/06/30 07:50:12;;;;;;;17.70;12.30;;;;;;;;;;5012725;28;20022;-62
2023/06/30 07:52:47;;;;;;;20.23;12.90;;;;;;;;;;5013321;28;20386;-63
2023/06/30 07:55:16;;;;;;;20.95;12.55;;;;;;;;;;5013518;28;20036;-62
2023/06/30 07:57:42;;;;;;;19.90;12.93;;;;;;;;;;5013425;28;20030;-63
2023/06/30 08:00:10;;;;;;;18.55;13.07;;;;;;;;;;5013382;28;20032;-63
2023/06/30 08:02:36;;;;;;;25.45;17.50;;;;;;;;;;5013364;28;20105;-62
2023/06/30 08:05:01;;;;;;;23.55;16.08;;;;;;;;;;5013492;28;20108;-63
2023/06/30 08:07:27;;;;;;;20.67;13.77;;;;;;;;;;5013195;28;20378;-63
2023/06/30 08:09:52;;;;;;;21.08;13.02;;;;;;;;;;5013142;28;20030;-63
2023/06/30 08:12:17;;;;;;;19.98;13.65;;;;;;;;;;5013163;28;20021;-64
2023/06/30 08:14:43;;;;;;;19.15;12.50;;;;;;;;;;5013254;28;20093;-63
2023/06/30 08:17:08;;;;;;;19.20;13.13;;;;;;;;;;5013139;28;20033;-64
2023/06/30 08:19:34;;;;;;;19.60;13.77;;;;;;;;;;5012874;28;20045;-63
2023/06/30 08:22:01;;;;;;;21.35;13.07;;;;;;;;;;5012701;28;20209;-63
2023/06/30 08:24:27;;;;;;;19.83;12.82;;;;;;;;;;5013080;28;20037;-63
2023/06/30 08:26:52;;;;;;;23.60;13.90;;;;;;;;;;5012822;28;20022;-63
2023/06/30 08:29:18;;;;;;;25.52;14.73;;;;;;;;;;5013107;28;20382;-64
2023/06/30 08:31:43;;;;;;;18.92;13.82;;;;;;;;;;5012855;28;20144;-63
2023/06/30 08:34:10;;;;;;;19.45;13.55;;;;;;;;;;5012826;28;20429;-63
2023/06/30 08:36:35;;;;;;;20.52;13.25;;;;;;;;;;5012547;28;20034;-65
2023/06/30 08:39:01;;;;;;;21.08;15.10;;;;;;;;;;5012901;28;20058;-63
2023/06/30 08:41:27;;;;;;;20.10;14.10;;;;;;;;;;5012483;28;20018;-63
2023/06/30 08:43:55;;;;;;;21.02;14.20;;;;;;;;;;5012776;28;20582;-63
2023/06/30 08:46:22;;;;;;;20.83;14.65;;;;;;;;;;5012745;28;20140;-66
2023/06/30 08:48:49;;;;;;;24.35;15.68;;;;;;;;;;5012769;28;20026;-64
2023/06/30 08:51:16;;;;;;;25.23;15.85;;;;;;;;;;5012620;28;20087;-64
2023/06/30 08:53:42;;;;;;;20.48;15.15;;;;;;;;;;5012640;28;20389;-64
2023/06/30 08:56:09;;;;;;;20.50;14.10;;;;;;;;;;5012690;28;20060;-64
2023/06/30 08:58:34;;;;;;;19.40;14.48;;;;;;;;;;5012655;28;20040;-64
2023/06/30 09:01:00;;;;;;;21.05;13.82;;;;;;;;;;5014393;28;20386;-63
2023/06/30 09:03:26;;;;;;;20.65;14.65;;;;;;;;;;5019317;28;20052;-63
2023/06/30 09:05:54;;;;;;;21.38;15.02;;;;;;;;;;5019063;28;20446;-64
2023/06/30 09:08:23;;;;;;;24.63;15.82;;;;;;;;;;5019067;28;20526;-63
2023/06/30 09:10:50;;;;;;;19.95;14.45;;;;;;;;;;5019129;28;20032;-63
2023/06/30 09:13:18;;;;;;;22.15;15.43;;;;;;;;;;5019203;28;20021;-63
2023/06/30 09:15:45;;;;;;;20.83;14.93;;;;;;;;;;5019021;28;20109;-64
2023/06/30 09:18:11;;;;;;;21.30;14.98;;;;;;;;;;5018818;28;20032;-65
2023/06/30 09:20:37;;;;;;;22.70;15.10;;;;;;;;;;5018446;28;20379;-64
2023/06/30 09:23:04;;;;;;;22.27;15.73;;;;;;;;;;5018948;28;20095;-63
2023/06/30 09:25:35;;;;;;;20.90;14.43;;;;;;;;;;5019112;28;20103;-64
2023/06/30 09:28:12;;;;;;;23.63;15.43;;;;;;;;;;5019195;28;20466;-63
2023/06/30 09:30:40;;;;;;;22.67;15.98;;;;;;;;;;5018703;28;20091;-63
2023/06/30 09:33:07;;;;;;;23.35;15.07;;;;;;;;;;5018684;28;20052;-64
2023/06/30 09:35:40;;;;;;;25.25;17.10;;;;;;;;;;5018522;28;20112;-63
2023/06/30 09:38:18;;;;;;;26.60;16.85;;;;;;;;;;5018797;28;20033;-64
2023/06/30 09:40:46;;;;;;;23.67;16.15;;;;;;;;;;5018545;28;20513;-63
2023/06/30 09:43:20;;;;;;;24.67;15.73;;;;;;;;;;5018629;28;20041;-64
2023/06/30 09:45:47;;;;;;;23.88;15.60;;;;;;;;;;5018904;28;20083;-67
2023/06/30 09:48:13;;;;;;;31.58;17.10;;;;;;;;;;5018415;28;20033;-68
2023/06/30 09:50:40;;;;;;;22.23;14.40;;;;;;;;;;5018758;28;20034;-64
2023/06/30 09:53:07;;;;;;;21.40;15.25;;;;;;;;;;5018580;28;20474;-63
2023/06/30 09:55:45;;;;;;;23.42;14.98;;;;;;;;;;5018734;28;20390;-63
2023/06/30 09:58:11;;;;;;;21.15;15.40;;;;;;;;;;5018323;28;20055;-63
2023/06/30 10:00:37;;;;;;;23.73;14.93;;;;;;;;;;5018639;28;20351;-64
2023/06/30 10:03:03;;;;;;;20.67;12.73;;;;;;;;;;5018401;28;20022;-65
2023/06/30 10:05:29;;;;;;;16.25;9.15;;;;;;;;;;5000984;28;20434;-64
2023/06/30 10:07:55;;;;;;;13.48;7.35;;;;;;;;;;5018557;28;20054;-64
2023/06/30 10:10:21;;;;;;;9.07;6.20;;;;;;;;;;5018407;28;20057;-66
2023/06/30 10:12:49;;;;;;;12.27;5.80;;;;;;;;;;5016247;28;20076;-64
2023/06/30 10:15:14;;;;;;;10.27;6.13;;;;;;;;;;5015525;28;20021;-65
2023/06/30 10:17:43;;;;;;;11.60;5.22;;;;;;;;;;5015100;28;20085;-64
2023/06/30 10:20:09;;;;;;;9.30;5.03;;;;;;;;;;5014961;28;20022;-63
2023/06/30 10:22:35;;;;;;;11.32;5.03;;;;;;;;;;5015090;28;20538;-64
2023/06/30 10:25:01;;;;;;;6.38;4.40;;;;;;;;;;5015423;28;20030;-63
2023/06/30 10:27:27;;;;;;;8.73;4.05;;;;;;;;;;5014949;28;20029;-63
2023/06/30 10:29:54;;;;;;;6.53;3.90;;;;;;;;;;5015181;28;20052;-65
2023/06/30 10:32:20;;;;;;;6.72;3.45;;;;;;;;;;5014661;28;20026;-62
2023/06/30 10:34:49;;;;;;;6.95;3.47;;;;;;;;;;5015007;28;20076;-66
2023/06/30 10:37:15;;;;;;;8.85;3.85;;;;;;;;;;5014941;28;20037;-65
2023/06/30 10:39:43;;;;;;;9.05;3.97;;;;;;;;;;5014958;28;20047;-67
2023/06/30 10:42:11;;;;;;;7.72;3.88;;;;;;;;;;5014736;28;20053;-63
2023/06/30 10:44:44;;;;;;;7.35;3.88;;;;;;;;;;5014846;28;20470;-66
2023/06/30 10:47:10;;;;;;;5.82;3.38;;;;;;;;;;5014801;28;20037;-66
2023/06/30 10:49:38;;;;;;;7.13;3.47;;;;;;;;;;5014778;28;20105;-63
2023/06/30 10:52:11;;;;;;;8.05;3.50;;;;;;;;;;5014691;28;20033;-66
2023/06/30 10:54:44;;;;;;;9.38;3.38;;;;;;;;;;5014683;28;20374;-67
2023/06/30 10:57:10;;;;;;;6.68;3.13;;;;;;;;;;5014518;28;20025;-63
2023/06/30 10:59:44;;;;;;;6.00;3.50;;;;;;;;;;5014590;28;20482;-63
2023/06/30 11:02:16;;;;;;;7.45;3.50;;;;;;;;;;5014342;28;20454;-63
2023/06/30 11:04:42;;;;;;;7.35;3.22;;;;;;;;;;5014436;28;20081;-66
2023/06/30 11:07:10;;;;;;;6.88;3.13;;;;;;;;;;5014428;28;20108;-63
2023/06/30 11:09:47;;;;;;;9.73;3.80;;;;;;;;;;5014296;28;20030;-63
2023/06/30 11:12:26;;;;;;;8.10;4.07;;;;;;;;;;5014311;28;20100;-63
2023/06/30 11:14:59;;;;;;;7.18;3.45;;;;;;;;;;5014096;28;20112;-63
2023/06/30 11:17:26;;;;;;;6.43;3.17;;;;;;;;;;5014019;28;20054;-64
2023/06/30 11:20:01;;;;;;;9.00;3.80;;;;;;;;;;5013833;28;20443;-65
2023/06/30 11:22:30;;;;;;;6.32;3.15;;;;;;;;;;5014058;28;20018;-66
2023/06/30 11:24:56;;;;;;;5.47;2.70;;;;;;;;;;5014052;28;20435;-67
2023/06/30 11:27:21;;;;;;;5.85;3.05;;;;;;;;;;5014116;28;20107;-66
2023/06/30 11:29:50;;;;;;;5.93;3.13;;;;;;;;;;5013939;28;20021;-64
2023/06/30 11:32:30;;;;;;;6.35;2.90;;;;;;;;;;5013810;28;20034;-64
2023/06/30 11:34:57;;;;;;;5.85;2.85;;;;;;;;;;5014094;28;20096;-64
2023/06/30 11:37:22;;;;;;;5.53;2.83;;;;;;;;;;5014027;28;20033;-64
2023/06/30 11:39:55;;;;;;;6.93;3.42;;;;;;;;;;5013722;28;20037;-64
2023/06/30 11:42:21;;;;;;;6.28;3.35;;;;;;;;;;5013498;28;20120;-64
2023/06/30 11:44:50;;;;;;;7.07;3.40;;;;;;;;;;5013608;28;20058;-64
2023/06/30 11:47:17;;;;;;;5.88;3.33;;;;;;;;;;5013894;28;20026;-64
2023/06/30 11:49:42;;;;;;;7.15;3.65;;;;;;;;;;5013624;28;20026;-63
2023/06/30 11:52:09;;;;;;;8.20;3.20;;;;;;;;;;5013447;28;20026;-63
2023/06/30 11:54:36;;;;;;;8.25;3.40;;;;;;;;;;5013462;28;20038;-64
2023/06/30 11:57:03;;;;;;;5.82;2.60;;;;;;;;;;5013416;28;20378;-66
2023/06/30 11:59:28;;;;;;;5.38;2.60;;;;;;;;;;5013582;28;20110;-64
2023/06/30 12:01:54;;;;;;;5.63;2.97;;;;;;;;;;5013578;28;20049;-63
2023/06/30 12:04:22;;;;;;;5.70;3.15;;;;;;;;;;5013488;28;20026;-64
2023/06/30 12:06:54;;;;;;;5.95;3.00;;;;;;;;;;5013502;28;20029;-63
2023/06/30 12:09:19;;;;;;;7.32;3.38;;;;;;;;;;5013166;28;20106;-64
2023/06/30 12:11:45;;;;;;;10.27;3.00;;;;;;;;;;5013313;28;20050;-64
2023/06/30 12:14:14;;;;;;;7.53;3.40;;;;;;;;;;5013146;28;20030;-63
2023/06/30 12:16:48;;;;;;;4.93;2.77;;;;;;;;;;5013221;28;20117;-63
2023/06/30 12:19:15;;;;;;;3.15;1.80;;;;;;;;;;5013090;28;20263;-63
2023/06/30 12:21:56;;;;;;;6.25;2.15;;;;;;;;;;4993305;28;20507;-64
2023/06/30 12:24:22;;;;;;;6.38;2.40;;;;;;;;;;4993250;28;20042;-64
2023/06/30 12:26:49;;;;;;;6.22;2.28;;;;;;;;;;4996738;28;20080;-63
2023/06/30 12:29:18;;;;;;;6.10;2.38;;;;;;;;;;5012520;28;20083;-64
2023/06/30 12:31:47;;;;;;;5.30;2.10;;;;;;;;;;5012990;28;20106;-66
2023/06/30 12:34:33;;;;;;;4.70;2.20;;;;;;;;;;5012677;28;20096;-65
2023/06/30 12:36:59;;;;;;;4.88;2.30;;;;;;;;;;5011740;28;20475;-66
2023/06/30 12:39:25;;;;;;;4.70;2.03;;;;;;;;;;5012542;28;20434;-66
2023/06/30 12:41:51;;;;;;;5.97;2.45;;;;;;;;;;5011946;28;20046;-64
2023/06/30 12:44:17;;;;;;;3.88;1.90;;;;;;;;;;5012457;28;20026;-64
2023/06/30 12:46:43;;;;;;;5.75;2.30;;;;;;;;;;5012638;28;20041;-67
2023/06/30 12:49:10;;;;;;;3.35;1.95;;;;;;;;;;5012710;28;20026;-67
2023/06/30 12:51:35;;;;;;;4.75;1.98;;;;;;;;;;5012732;28;20037;-68
2023/06/30 12:54:01;;;;;;;7.00;2.38;;;;;;;;;;5012466;28;20390;-67
2023/06/30 12:56:27;;;;;;;4.38;2.13;;;;;;;;;;5012378;28;20042;-64
2023/06/30 12:58:52;;;;;;;5.45;2.38;;;;;;;;;;5012038;28;20130;-65
2023/06/30 13:01:18;;;;;;;4.53;2.15;;;;;;;;;;5012511;28;20113;-64
2023/06/30 13:03:43;;;;;;;7.00;2.42;;;;;;;;;;5012356;28;20061;-65
2023/06/30 13:06:09;;;;;;;7.57;2.60;;;;;;;;;;5012469;28;20378;-66
2023/06/30 13:08:35;;;;;;;5.78;2.30;;;;;;;;;;5012411;28;20033;-67
2023/06/30 13:11:05;;;;;;;4.00;2.20;;;;;;;;;;5012666;28;20036;-64
2023/06/30 13:13:30;;;;;;;5.90;2.50;;;;;;;;;;5012453;28;20072;-67
2023/06/30 13:15:56;;;;;;;6.45;2.60;;;;;;;;;;5012520;28;20049;-64
2023/06/30 13:18:21;;;;;;;5.65;2.28;;;;;;;;;;5012293;28;20510;-64
2023/06/30 13:20:47;;;;;;;5.45;2.10;;;;;;;;;;5012203;28;20038;-66
2023/06/30 13:23:12;;;;;;;3.97;2.25;;;;;;;;;;5012508;28;20052;-64
2023/06/30 13:25:38;;;;;;;7.88;2.30;;;;;;;;;;5012162;28;20543;-68
2023/06/30 13:28:03;;;;;;;5.00;2.00;;;;;;;;;;5012373;28;20022;-64
2023/06/30 13:30:28;;;;;;;3.78;2.05;;;;;;;;;;5012201;28;20030;-64
2023/06/30 13:32:54;;;;;;;4.82;2.10;;;;;;;;;;5012109;28;20022;-67
2023/06/30 13:35:19;;;;;;;5.75;2.40;;;;;;;;;;5012319;28;20160;-68
2023/06/30 13:37:46;;;;;;;6.25;2.50;;;;;;;;;;5012072;28;20058;-68
2023/06/30 13:40:12;;;;;;;4.32;1.90;;;;;;;;;;5011795;28;20030;-67
2023/06/30 13:42:38;;;;;;;4.90;2.20;;;;;;;;;;5011949;28;20046;-68
2023/06/30 13:45:04;;;;;;;5.40;2.38;;;;;;;;;;5012051;28;20034;-65
2023/06/30 13:47:29;;;;;;;5.07;1.98;;;;;;;;;;5012150;28;20037;-65
2023/06/30 13:49:55;;;;;;;5.28;1.80;;;;;;;;;;5015825;28;20037;-66
2023/06/30 13:52:20;;;;;;;5.07;2.08;;;;;;;;;;5016049;28;20129;-64
2023/06/30 13:54:45;;;;;;;4.53;2.08;;;;;;;;;;5015570;28;20022;-65
2023/06/30 13:57:12;;;;;;;3.28;1.70;;;;;;;;;;5015615;28;20021;-64
2023/06/30 13:59:37;;;;;;;4.20;1.80;;;;;;;;;;5015684;28;20026;-65
2023/06/30 14:02:03;;;;;;;5.40;2.10;;;;;;;;;;5015673;28;20539;-66
2023/06/30 14:04:28;;;;;;;5.50;2.42;;;;;;;;;;5015572;28;20022;-64
2023/06/30 14:06:54;;;;;;;7.35;2.92;;;;;;;;;;5015480;28;20445;-65
2023/06/30 14:09:19;;;;;;;8.02;2.40;;;;;;;;;;5015387;28;20024;-65
2023/06/30 14:11:45;;;;;;;5.80;2.25;;;;;;;;;;5015386;28;20048;-65
2023/06/30 14:14:10;;;;;;;6.10;2.60;;;;;;;;;;5015380;28;20117;-65
2023/06/30 14:16:36;;;;;;;4.60;2.67;;;;;;;;;;5015196;28;20109;-63
2023/06/30 14:19:02;;;;;;;4.32;1.92;;;;;;;;;;5015095;28;20460;-65
2023/06/30 14:21:28;;;;;;;3.40;2.08;;;;;;;;;;5015107;28;20391;-64
2023/06/30 14:23:54;;;;;;;6.10;2.22;;;;;;;;;;5014854;28;20050;-63
2023/06/30 14:26:20;;;;;;;3.05;1.60;;;;;;;;;;5014961;28;20436;-64
2023/06/30 14:28:45;;;;;;;4.50;1.67;;;;;;;;;;5014892;28;20022;-64